Time;durP1;ratioP1;P1;durP2;ratioP2;P2;SDS_P1;SDS_P2;PMS_P1;PMS_P2;Temp;Humidity;BMP_temperature;BMP_pressure;BME280_temperature;BME280_humidity;BME280_pressure;Samples;Min_cycle;Max_cycle;Signal;HPM_P1;HPM_P2
2022/01/17 00:02:12;;;;;;;17.58;13.65;;;;;;;2.74;85.17;102160.66;5068384;28;20402;-68
2022/01/17 00:05:16;;;;;;;16.75;12.45;;;;;;;2.69;85.40;102167.53;5048212;28;20541;-68
2022/01/17 00:08:20;;;;;;;16.95;12.10;;;;;;;2.68;85.45;102173.53;5048262;28;20043;-68
2022/01/17 00:14:48;;;;;;;17.55;12.10;;;;;;;2.71;85.37;102181.28;4987638;28;20150;-85
2022/01/17 00:18:19;;;;;;;24.90;18.20;;;;;;;2.70;85.37;102169.25;4992272;28;20046;-85
2022/01/17 00:21:17;;;;;;;16.77;10.93;;;;;;;2.68;85.53;102173.53;4991178;28;20044;-85
2022/01/17 00:24:21;;;;;;;19.80;12.77;;;;;;;2.71;85.37;102183.88;4967102;28;20659;-84
2022/01/17 00:27:25;;;;;;;16.25;11.38;;;;;;;2.66;85.44;102164.91;4956919;28;20148;-84
2022/01/17 00:30:29;;;;;;;;;;;;;;;2.69;85.88;102175.28;4995117;28;20116;-84
2022/01/17 00:33:33;;;;;;;;;;;;;;;2.60;86.04;102172.63;4995012;28;19921;-84
2022/01/17 00:36:36;;;;;;;26.02;17.90;;;;;;;2.59;86.33;102158.00;4980325;28;20395;-84
2022/01/17 00:40:29;;;;;;;23.40;15.23;;;;;;;2.65;85.92;102158.00;4981673;28;20061;-84
2022/01/17 00:43:35;;;;;;;20.83;14.93;;;;;;;2.55;86.29;102145.06;4976091;28;20049;-85
2022/01/17 00:46:38;;;;;;;17.85;12.98;;;;;;;2.50;86.85;102133.81;4975351;28;20073;-84
2022/01/17 00:49:42;;;;;;;21.83;15.55;;;;;;;2.44;86.93;102141.53;4993134;28;20089;-84
2022/01/17 00:52:45;;;;;;;16.80;12.00;;;;;;;2.44;87.11;102144.09;4974892;28;20045;-84
2022/01/17 00:55:49;;;;;;;22.70;17.42;;;;;;;2.46;87.28;102137.25;4970465;28;20106;-85
2022/01/17 00:58:52;;;;;;;20.75;16.35;;;;;;;2.44;87.58;102145.81;4982624;28;20049;-84
2022/01/17 01:01:55;;;;;;;;;;;;;;;2.45;87.75;102145.81;4984374;28;20048;-84
2022/01/17 01:05:00;;;;;;;16.38;11.75;;;;;;;2.45;87.28;102150.13;4981589;28;19984;-85
2022/01/17 01:08:04;;;;;;;16.08;12.00;;;;;;;2.41;87.27;102157.00;4993751;28;20088;-84
2022/01/17 01:11:08;;;;;;;18.00;12.40;;;;;;;2.51;87.89;102161.34;4980360;28;20158;-84
2022/01/17 01:14:12;;;;;;;18.77;13.25;;;;;;;2.52;87.31;102178.59;4978194;28;20049;-84
2022/01/17 01:17:31;;;;;;;16.60;11.95;;;;;;;2.56;87.03;102182.94;4967112;28;20449;-84
2022/01/17 01:27:55;;;;;;;14.20;9.98;;;;;;;2.66;86.90;102203.66;4982122;28;20049;-84
2022/01/17 01:31:02;;;;;;;16.77;12.57;;;;;;;2.58;87.19;102198.41;4970909;28;20108;-84
2022/01/17 01:34:07;;;;;;;14.25;10.73;;;;;;;2.66;87.18;102183.00;4967703;28;20077;-84
2022/01/17 01:37:11;;;;;;;16.80;11.73;;;;;;;2.65;86.99;102183.81;4964921;28;20080;-84
2022/01/17 01:40:17;;;;;;;14.55;9.65;;;;;;;2.69;86.78;102196.78;4977599;28;20049;-84
2022/01/17 01:43:21;;;;;;;14.43;10.27;;;;;;;2.70;86.54;102187.31;4971051;28;20093;-84
2022/01/17 01:46:25;;;;;;;16.02;10.85;;;;;;;2.71;86.95;102183.88;4971066;28;20056;-85
2022/01/17 01:49:28;;;;;;;14.25;10.38;;;;;;;2.66;87.04;102199.34;4977994;28;20097;-84
2022/01/17 01:52:32;;;;;;;14.48;11.00;;;;;;;2.62;87.45;102202.78;4962397;28;20053;-84
2022/01/17 01:55:36;;;;;;;15.48;10.50;;;;;;;2.66;87.09;102201.06;4962166;28;20081;-85
2022/01/17 01:58:44;;;;;;;15.43;11.27;;;;;;;2.75;87.29;102202.00;4950565;28;20136;-85
2022/01/17 02:01:52;;;;;;;16.85;12.48;;;;;;;2.72;87.59;102198.53;4980761;28;20468;-85
2022/01/17 02:04:56;;;;;;;15.80;9.65;;;;;;;2.75;87.10;102190.81;4976964;28;20544;-85
2022/01/17 02:08:05;;;;;;;14.60;10.70;;;;;;;2.74;87.39;102178.72;4990661;28;20095;-86
2022/01/17 02:11:10;;;;;;;14.32;10.52;;;;;;;2.72;87.75;102177.88;4976798;28;20048;-84
2022/01/17 02:14:14;;;;;;;16.95;11.20;;;;;;;2.72;87.91;102186.47;4993600;28;20085;-84
2022/01/17 02:17:20;;;;;;;16.67;10.43;;;;;;;2.74;88.36;102181.31;4970690;28;20132;-84
2022/01/17 02:20:34;;;;;;;14.70;10.35;;;;;;;2.75;88.24;102164.97;4980806;28;20615;-84
2022/01/17 02:23:39;;;;;;;14.52;10.45;;;;;;;2.71;87.97;102161.53;4954819;28;20045;-85
2022/01/17 02:26:44;;;;;;;18.17;11.13;;;;;;;2.73;88.14;102164.09;4981918;28;20088;-84
2022/01/17 02:29:47;;;;;;;14.18;10.27;;;;;;;2.82;87.93;102156.41;4994971;28;20052;-84
2022/01/17 02:32:51;;;;;;;15.93;10.70;;;;;;;2.66;88.01;102164.91;4991341;28;20073;-84
2022/01/17 02:35:56;;;;;;;13.07;9.38;;;;;;;2.76;87.99;102166.69;4970594;28;20057;-85
2022/01/17 02:39:01;;;;;;;15.27;9.63;;;;;;;2.74;88.23;102173.56;4969562;28;20069;-84
2022/01/17 02:42:06;;;;;;;14.05;9.68;;;;;;;2.69;88.21;102172.69;4951263;28;20085;-84
2022/01/17 02:45:32;;;;;;;14.63;9.70;;;;;;;2.73;88.37;102188.19;4958355;28;20487;-85
2022/01/17 02:48:38;;;;;;;14.35;10.02;;;;;;;2.78;87.96;102175.34;4976623;28;20044;-85
2022/01/17 02:51:44;;;;;;;16.85;10.40;;;;;;;2.73;88.38;102177.00;4992867;28;20118;-85
2022/01/17 02:54:47;;;;;;;12.75;9.82;;;;;;;2.79;88.43;102182.22;4980205;28;20057;-84
2022/01/17 02:57:50;;;;;;;14.55;9.77;;;;;;;2.67;88.84;102179.53;4967286;28;20105;-84
2022/01/17 03:00:57;;;;;;;14.90;9.95;;;;;;;2.72;89.07;102170.13;4974822;28;20402;-84
2022/01/17 03:04:01;;;;;;;14.88;10.05;;;;;;;2.76;88.64;102169.28;4966781;28;20074;-85
2022/01/17 03:07:05;;;;;;;15.02;9.98;;;;;;;2.76;88.95;102166.69;4982182;28;20045;-84
2022/01/17 03:10:45;;;;;;;12.93;8.93;;;;;;;2.64;89.28;102162.31;4995685;28;20426;-84
2022/01/17 03:13:42;;;;;;;12.60;9.05;;;;;;;2.71;88.90;102152.88;4977059;28;20057;-84
2022/01/17 03:16:48;;;;;;;13.20;9.68;;;;;;;2.67;88.78;102151.13;4990156;28;20202;-84
2022/01/17 03:19:51;;;;;;;13.15;8.55;;;;;;;2.72;88.58;102149.47;4976002;28;20097;-84
2022/01/17 03:22:55;;;;;;;13.73;9.30;;;;;;;2.70;88.57;102151.16;4964798;28;20202;-84
2022/01/17 03:25:59;;;;;;;15.13;10.05;;;;;;;2.70;89.22;102161.50;4974690;28;20561;-84
2022/01/17 03:29:04;;;;;;;12.90;9.63;;;;;;;2.71;88.90;102158.03;4973511;28;20103;-85
2022/01/17 03:32:07;;;;;;;13.50;9.85;;;;;;;2.75;89.05;102154.66;4967139;28;20037;-84
2022/01/17 03:35:11;;;;;;;;;;;;;;;2.70;89.18;102135.66;4979798;28;20587;-84
2022/01/17 03:38:18;;;;;;;15.20;9.60;;;;;;;2.74;88.87;102127.06;4980740;28;19962;-84
2022/01/17 03:41:22;;;;;;;13.57;9.10;;;;;;;2.74;88.64;102117.63;4953260;28;20054;-84
2022/01/17 03:44:26;;;;;;;14.07;9.30;;;;;;;2.84;88.13;102136.63;4977435;28;20442;-85
2022/01/17 03:47:30;;;;;;;13.18;9.40;;;;;;;2.80;88.75;102138.28;4964307;28;20053;-84
2022/01/17 03:50:34;;;;;;;12.45;8.45;;;;;;;2.83;88.54;102136.59;4980331;28;20077;-84
2022/01/17 03:53:38;;;;;;;15.23;9.48;;;;;;;2.86;88.45;102137.47;4981552;28;20061;-84
2022/01/17 03:56:42;;;;;;;13.60;9.63;;;;;;;2.84;88.61;102152.13;4964092;28;20057;-84
2022/01/17 03:59:45;;;;;;;11.50;8.88;;;;;;;2.89;88.20;102147.81;4974408;28;20128;-84
2022/01/17 04:02:49;;;;;;;14.25;8.90;;;;;;;2.91;87.89;102143.53;4983634;28;20045;-83
2022/01/17 04:05:53;;;;;;;14.27;9.35;;;;;;;3.00;88.21;102141.00;4983533;28;20073;-84
2022/01/17 04:08:56;;;;;;;13.10;9.13;;;;;;;3.01;88.14;102140.16;4995554;28;20507;-84
2022/01/17 04:12:03;;;;;;;13.18;9.55;;;;;;;3.02;87.43;102143.59;4981979;28;20076;-84
2022/01/17 04:15:07;;;;;;;11.25;8.55;;;;;;;3.09;87.63;102154.81;4983577;28;20049;-85
2022/01/17 04:18:12;;;;;;;13.82;8.85;;;;;;;3.14;87.25;102168.63;4995512;28;20104;-84
2022/01/17 04:21:15;;;;;;;12.35;8.65;;;;;;;3.13;87.41;102177.25;4983152;28;20509;-84
2022/01/17 04:24:18;;;;;;;13.20;8.70;;;;;;;3.10;87.82;102183.28;4983258;28;20405;-84
2022/01/17 04:27:21;;;;;;;13.32;9.25;;;;;;;3.16;87.72;102185.00;4983020;28;20098;-84
2022/01/17 04:30:25;;;;;;;11.30;8.30;;;;;;;3.24;87.03;102180.75;4972243;28;20509;-85
2022/01/17 04:33:29;;;;;;;11.95;7.97;;;;;;;3.28;86.86;102197.13;4971996;28;20101;-84
2022/01/17 04:36:32;;;;;;;24.67;18.02;;;;;;;3.26;87.19;102195.41;4982733;28;20041;-85
2022/01/17 04:39:35;;;;;;;12.80;8.80;;;;;;;3.25;86.88;102183.34;4982620;28;20049;-84
2022/01/17 04:42:44;;;;;;;12.40;8.68;;;;;;;3.28;87.07;102172.13;4963671;28;20520;-84
2022/01/17 04:45:50;;;;;;;13.10;7.63;;;;;;;3.20;87.75;102173.84;4952654;28;20590;-85
2022/01/17 04:48:53;;;;;;;10.48;7.82;;;;;;;3.22;87.73;102159.19;4952500;28;20130;-82
2022/01/17 04:51:56;;;;;;;9.80;7.40;;;;;;;3.23;87.12;102166.09;4952265;28;20086;-82
2022/01/17 04:55:02;;;;;;;14.55;7.57;;;;;;;3.25;86.95;102164.34;4963150;28;20141;-84
2022/01/17 04:58:06;;;;;;;11.00;7.53;;;;;;;3.26;86.67;102156.63;4963499;28;20082;-83
2022/01/17 05:01:10;;;;;;;10.65;7.18;;;;;;;3.29;86.74;102158.38;4963467;28;20135;-83
2022/01/17 05:04:13;;;;;;;11.75;8.15;;;;;;;3.29;86.77;102160.06;4966570;28;20101;-84
2022/01/17 05:07:20;;;;;;;17.98;12.10;;;;;;;3.31;86.70;102168.69;4978774;28;20081;-83
2022/01/17 05:10:28;;;;;;;26.20;17.42;;;;;;;3.33;86.92;102183.38;4957606;28;20045;-83
2022/01/17 05:13:44;;;;;;;20.88;14.07;;;;;;;3.39;86.69;102191.16;4966908;28;20150;-83
2022/01/17 05:21:54;;;;;;;14.82;9.88;;;;;;;3.38;87.29;102207.53;4953842;29;20031;-83
2022/01/17 05:25:04;;;;;;;19.15;14.15;;;;;;;3.35;87.15;102224.72;4942493;29;20098;-83
2022/01/17 05:28:07;;;;;;;9.43;7.20;;;;;;;3.52;86.50;102211.91;4968527;28;20145;-83
2022/01/17 05:31:11;;;;;;;9.82;6.43;;;;;;;3.52;86.33;102206.72;4968810;28;20142;-83
2022/01/17 05:34:14;;;;;;;;;;;;;;;3.54;86.04;102194.63;4958011;28;20038;-83
2022/01/17 05:37:18;;;;;;;9.32;6.57;;;;;;;3.60;85.43;102197.25;4939604;29;19925;-83
2022/01/17 05:40:21;;;;;;;9.23;6.72;;;;;;;3.56;85.75;102187.75;4940236;29;20045;-83
2022/01/17 05:47:50;;;;;;;14.15;6.85;;;;;;;3.50;85.38;102194.63;4956456;28;19945;-82
2022/01/17 05:50:54;;;;;;;13.57;8.05;;;;;;;3.46;86.09;102203.25;4957096;28;20054;-82
2022/01/17 05:53:57;;;;;;;9.45;6.78;;;;;;;3.47;85.68;102188.59;4952663;28;20057;-82
2022/01/17 06:02:09;;;;;;;10.45;7.75;;;;;;;3.56;85.34;102209.31;4964930;28;20053;-82
2022/01/17 06:05:12;;;;;;;14.43;8.38;;;;;;;3.59;85.38;102204.16;4968007;28;20061;-82
2022/01/17 06:08:16;;;;;;;9.40;6.85;;;;;;;3.53;85.40;102203.28;4956645;28;20767;-82
2022/01/17 06:11:38;;;;;;;8.88;6.47;;;;;;;3.56;85.18;102211.03;4968299;28;20098;-82
2022/01/17 06:14:44;;;;;;;8.43;6.25;;;;;;;3.54;85.17;102223.09;4970446;28;20054;-82
2022/01/17 06:17:52;;;;;;;11.02;6.80;;;;;;;3.56;85.14;102229.13;4942847;29;20098;-82
2022/01/17 06:21:01;;;;;;;8.35;6.03;;;;;;;3.59;84.36;102211.91;4946895;28;20097;-82
2022/01/17 06:24:10;;;;;;;16.58;9.77;;;;;;;3.65;84.76;102216.25;4954769;28;20054;-82
2022/01/17 06:27:17;;;;;;;7.95;5.85;;;;;;;3.62;84.66;102229.16;4951074;29;20058;-82
2022/01/17 06:35:35;;;;;;;9.88;5.82;;;;;;;3.59;84.50;102193.81;4954920;28;20457;-82
2022/01/17 06:38:43;;;;;;;10.35;6.32;;;;;;;3.58;84.48;102194.66;4950949;28;20058;-82
2022/01/17 06:41:50;;;;;;;10.73;6.57;;;;;;;3.58;84.86;102196.41;4953099;29;20194;-82
2022/01/17 06:44:59;;;;;;;11.95;7.47;;;;;;;3.57;84.96;102190.34;4953691;29;20049;-82
2022/01/17 06:48:03;;;;;;;10.55;5.75;;;;;;;3.59;84.95;102177.44;4955903;28;20097;-81
2022/01/17 06:51:06;;;;;;;11.55;6.80;;;;;;;3.65;84.65;102159.34;4958470;28;20050;-81
2022/01/17 06:54:10;;;;;;;12.25;7.38;;;;;;;3.68;84.72;102175.72;4942777;29;20101;-81
2022/01/17 06:57:13;;;;;;;10.70;6.97;;;;;;;3.69;84.20;102155.88;4943362;29;20054;-81
2022/01/17 07:00:17;;;;;;;;;;;;;;;3.65;84.33;102162.78;4924160;29;20129;-82
2022/01/17 07:03:21;;;;;;;10.38;7.18;;;;;;;3.64;84.63;102175.72;4934884;29;19974;-81
2022/01/17 07:06:25;;;;;;;11.82;7.18;;;;;;;3.61;85.01;102196.41;4932004;29;20050;-81
2022/01/17 07:09:31;;;;;;;10.35;7.28;;;;;;;3.65;84.36;102213.66;4942153;29;20085;-81
2022/01/17 07:12:37;;;;;;;10.15;6.70;;;;;;;3.71;84.20;102219.72;4938433;28;20101;-81
2022/01/17 07:15:41;;;;;;;16.30;10.10;;;;;;;3.69;84.39;102226.59;4927750;28;20050;-82
2022/01/17 07:18:46;;;;;;;12.10;7.30;;;;;;;3.65;84.38;102250.72;4950445;29;20054;-81
2022/01/17 07:21:50;;;;;;;;;;;;;;;3.66;84.47;102256.78;4969938;28;20053;-81
2022/01/17 07:24:56;;;;;;;10.98;7.72;;;;;;;3.74;84.47;102231.81;4935290;28;19964;-81
2022/01/17 07:27:59;;;;;;;10.52;7.75;;;;;;;3.67;84.39;102223.16;4960200;28;20054;-81
2022/01/17 07:31:03;;;;;;;11.20;8.20;;;;;;;3.66;84.51;102231.75;4951562;28;20078;-81
2022/01/17 07:34:07;;;;;;;;;;;;;;;3.73;84.37;102227.47;4960841;28;20077;-81
2022/01/17 07:37:11;;;;;;;12.50;8.18;;;;;;;3.78;83.39;102230.94;4961368;28;19984;-81
2022/01/17 07:40:14;;;;;;;;;;;;;;;3.73;84.15;102230.94;4959079;28;20046;-81
2022/01/17 07:43:18;;;;;;;12.95;7.90;;;;;;;3.69;83.48;102243.84;4971468;28;19929;-81
2022/01/17 07:46:31;;;;;;;9.85;7.25;;;;;;;3.75;83.43;102256.81;4965487;28;20426;-81
2022/01/17 07:49:35;;;;;;;14.43;7.80;;;;;;;3.71;83.56;102260.25;4972953;28;20045;-81
2022/01/17 07:52:38;;;;;;;;;;;;;;;3.72;83.30;102256.78;4970911;28;20132;-82
2022/01/17 07:55:42;;;;;;;9.52;7.07;;;;;;;3.85;82.74;102249.94;4971858;28;19968;-81
2022/01/17 07:58:45;;;;;;;;;;;;;;;3.84;82.55;102249.09;4949568;28;20052;-82
2022/01/17 08:01:49;;;;;;;12.83;7.23;;;;;;;3.89;82.81;102244.78;4953398;28;19921;-80
2022/01/17 08:04:52;;;;;;;11.73;7.32;;;;;;;3.92;82.56;102244.81;4971694;28;20621;-80
2022/01/17 08:07:55;;;;;;;;;;;;;;;3.85;82.19;102249.94;4960163;28;20129;-80
2022/01/17 08:10:59;;;;;;;17.75;11.18;;;;;;;3.90;82.15;102250.84;4971061;28;19964;-80
2022/01/17 08:14:02;;;;;;;21.92;13.95;;;;;;;3.91;82.41;102248.22;4968942;28;20121;-80
2022/01/17 08:17:06;;;;;;;13.27;8.98;;;;;;;3.83;82.31;102249.94;4939348;29;20038;-80
2022/01/17 08:20:11;;;;;;;13.80;9.43;;;;;;;3.84;82.30;102250.81;4940002;29;20153;-80
2022/01/17 08:23:17;;;;;;;16.85;10.25;;;;;;;3.85;82.12;102253.38;4952595;29;20131;-80
2022/01/17 08:26:21;;;;;;;10.80;7.97;;;;;;;3.88;81.85;102262.88;4953290;29;20149;-81
2022/01/17 08:29:26;;;;;;;12.93;7.57;;;;;;;3.90;81.45;102259.47;4960946;28;20417;-80
2022/01/17 08:32:32;;;;;;;13.43;7.65;;;;;;;3.90;81.83;102250.84;4970483;28;20444;-80
2022/01/17 08:35:35;;;;;;;13.38;8.13;;;;;;;3.91;81.25;102248.22;4969450;28;20081;-80
2022/01/17 08:38:39;;;;;;;12.35;9.25;;;;;;;3.93;81.62;102249.13;4957883;28;20124;-80
2022/01/17 08:41:43;;;;;;;14.52;9.50;;;;;;;3.91;81.48;102252.56;4969056;28;20041;-80
2022/01/17 08:44:49;;;;;;;14.63;8.02;;;;;;;3.89;81.67;102264.59;4969262;28;20101;-80
2022/01/17 08:47:53;;;;;;;15.18;10.32;;;;;;;3.81;82.16;102276.66;4958891;28;20048;-80
2022/01/17 08:50:56;;;;;;;14.30;8.57;;;;;;;3.87;81.64;102279.28;4959018;28;20113;-80
2022/01/17 08:54:00;;;;;;;15.60;8.30;;;;;;;3.86;81.33;102280.13;4946430;28;20049;-80
2022/01/17 08:57:04;;;;;;;11.02;7.45;;;;;;;3.92;81.51;102270.69;4957655;28;20160;-80
2022/01/17 09:00:11;;;;;;;16.50;11.23;;;;;;;3.89;81.44;102273.25;4957796;28;20081;-80
2022/01/17 09:03:15;;;;;;;10.32;8.15;;;;;;;3.93;81.27;102272.41;4968854;28;20050;-82
2022/01/17 09:06:18;;;;;;;14.02;8.15;;;;;;;3.95;81.26;102285.34;4969765;28;20094;-81
2022/01/17 09:09:22;;;;;;;25.27;15.88;;;;;;;3.99;81.48;102291.38;4956479;28;20089;-82
2022/01/17 09:12:26;;;;;;;15.75;8.95;;;;;;;3.93;81.36;102282.75;4969244;28;20301;-83
2022/01/17 09:15:30;;;;;;;18.83;13.80;;;;;;;4.03;80.73;102294.00;4956832;28;20042;-83
2022/01/17 09:18:34;;;;;;;26.38;18.77;;;;;;;4.05;80.76;102296.59;4968874;28;20065;-84
2022/01/17 09:21:38;;;;;;;28.05;18.23;;;;;;;4.06;81.18;102296.59;4945535;28;20112;-84
2022/01/17 09:24:42;;;;;;;16.00;9.50;;;;;;;4.10;80.48;102287.97;4968144;28;20536;-84
2022/01/17 09:27:45;;;;;;;16.23;10.88;;;;;;;4.15;80.54;102288.00;4936916;29;20154;-84
2022/01/17 09:30:53;;;;;;;29.10;17.05;;;;;;;4.08;80.70;102289.69;4939179;28;20059;-83
2022/01/17 09:33:57;;;;;;;133.23;84.13;;;;;;;4.18;81.10;102298.38;4959914;28;20089;-83
2022/01/17 09:37:01;;;;;;;14.55;8.75;;;;;;;4.27;80.29;102298.38;4946624;28;20422;-83
2022/01/17 09:40:05;;;;;;;;;;;;;;;4.23;80.21;102307.00;4956277;28;20197;-83
2022/01/17 09:43:09;;;;;;;31.13;21.88;;;;;;;4.17;79.84;102317.34;4968121;28;20297;-83
2022/01/17 09:46:15;;;;;;;11.40;7.88;;;;;;;4.25;79.49;102333.78;4966244;28;20057;-85
2022/01/17 09:49:25;;;;;;;28.38;19.80;;;;;;;4.31;79.08;102331.19;4937643;28;20058;-84
2022/01/17 09:52:35;;;;;;;15.90;10.57;;;;;;;4.33;79.57;102326.88;4950690;29;20094;-81
2022/01/17 09:55:38;;;;;;;20.40;14.88;;;;;;;4.38;79.25;102317.41;4940788;28;20096;-81
2022/01/17 09:58:42;;;;;;;16.33;9.35;;;;;;;4.47;79.09;102332.09;4969346;28;20042;-81
2022/01/17 10:01:47;;;;;;;76.13;49.15;;;;;;;4.53;78.89;102344.16;4969149;28;20109;-82
2022/01/17 10:04:51;;;;;;;15.45;11.20;;;;;;;4.53;78.95;102332.13;4957647;28;20648;-82
2022/01/17 10:07:57;;;;;;;19.25;10.77;;;;;;;4.60;78.54;102358.88;4945441;28;20830;-82
2022/01/17 10:11:02;;;;;;;12.63;8.88;;;;;;;4.69;77.83;102347.66;4956355;28;20053;-82
2022/01/17 10:14:23;;;;;;;16.25;9.18;;;;;;;4.73;78.27;102345.09;4953803;28;20140;-82
2022/01/17 10:17:45;;;;;;;48.70;28.02;;;;;;;4.71;77.93;102339.03;4961485;28;20500;-82
2022/01/17 10:20:54;;;;;;;13.65;7.88;;;;;;;4.70;77.94;102342.50;4966152;28;20403;-81
2022/01/17 10:24:40;;;;;;;15.27;10.20;;;;;;;4.62;78.19;102349.38;4964326;28;20090;-82
2022/01/17 10:28:11;;;;;;;10.90;7.05;;;;;;;4.62;77.95;102339.88;4971901;28;20065;-81
2022/01/17 10:38:08;;;;;;;20.67;11.77;;;;;;;4.70;78.09;102334.72;4950133;28;20593;-82
2022/01/17 10:41:15;;;;;;;10.75;6.82;;;;;;;4.61;77.67;102324.34;4971597;28;20041;-82
2022/01/17 10:44:38;;;;;;;21.02;12.55;;;;;;;4.63;78.08;102313.13;4973070;28;20057;-82
2022/01/17 10:47:43;;;;;;;13.63;7.05;;;;;;;4.75;77.24;102345.94;4972342;28;20085;-82
2022/01/17 10:50:50;;;;;;;13.73;6.55;;;;;;;4.80;77.33;102323.50;4962016;28;20382;-82
2022/01/17 10:53:55;;;;;;;11.20;6.75;;;;;;;4.81;77.09;102350.25;4971934;28;20102;-81
2022/01/17 10:57:04;;;;;;;10.82;6.30;;;;;;;4.80;77.02;102346.81;4967380;28;20513;-81
2022/01/17 11:00:11;;;;;;;11.98;6.85;;;;;;;4.85;77.39;102365.84;4948106;28;20549;-81
2022/01/17 11:03:19;;;;;;;10.90;5.63;;;;;;;4.86;77.13;102369.28;4946623;28;20101;-81
2022/01/17 11:06:23;;;;;;;10.80;7.18;;;;;;;4.88;77.07;102365.84;4970698;28;20126;-81
2022/01/17 11:09:38;;;;;;;11.80;6.88;;;;;;;5.02;77.22;102354.59;4971693;28;20049;-81
2022/01/17 11:12:41;;;;;;;10.65;7.28;;;;;;;5.11;76.96;102349.44;4959931;28;20066;-82
2022/01/17 11:15:49;;;;;;;8.23;5.85;;;;;;;5.31;75.96;102350.25;4954072;28;20050;-81
2022/01/17 11:19:00;;;;;;;12.93;6.88;;;;;;;5.30;76.46;102343.34;4950304;28;20041;-81
2022/01/17 11:22:04;;;;;;;11.32;6.65;;;;;;;5.19;76.97;102334.72;4972368;28;20516;-81
2022/01/17 11:25:09;;;;;;;;;;;;;;;5.24;76.92;102321.75;4954737;28;20057;-81
2022/01/17 11:28:15;;;;;;;11.70;6.32;;;;;;;5.23;77.23;102315.72;4972076;28;19933;-81
2022/01/17 11:31:19;;;;;;;12.93;6.60;;;;;;;5.26;77.21;102315.66;4959250;28;20130;-81
2022/01/17 11:34:22;;;;;;;;;;;;;;;5.26;77.44;102318.25;4973260;28;20050;-81
2022/01/17 11:37:27;;;;;;;13.52;6.90;;;;;;;5.28;77.15;102316.53;4956091;28;19921;-81
2022/01/17 11:40:39;;;;;;;14.15;8.55;;;;;;;5.35;77.15;102310.47;4953445;29;20386;-81
2022/01/17 11:43:42;;;;;;;14.32;8.95;;;;;;;5.45;77.02;102310.44;4941514;29;20508;-81
2022/01/17 11:46:53;;;;;;;15.48;9.88;;;;;;;5.57;76.57;102313.03;4970863;28;20078;-81
2022/01/17 11:50:19;;;;;;;;;;;;;;;5.51;76.83;102315.63;4968408;28;20441;-81
2022/01/17 11:53:22;;;;;;;14.52;8.43;;;;;;;5.63;76.56;102305.22;4954065;28;19956;-81
2022/01/17 11:56:38;;;;;;;18.10;10.48;;;;;;;5.58;76.36;102302.66;4970159;28;20046;-81
2022/01/17 11:59:48;;;;;;;11.35;7.63;;;;;;;5.43;76.97;102299.25;4959360;28;20054;-81
2022/01/17 12:03:19;;;;;;;18.42;13.25;;;;;;;5.34;76.99;102298.38;4948476;28;20553;-81
2022/01/17 12:06:37;;;;;;;11.05;7.63;;;;;;;5.34;77.40;102302.72;4939686;29;20146;-81
2022/01/17 12:09:44;;;;;;;14.32;9.27;;;;;;;5.42;77.47;102279.31;4939147;28;20116;-81
2022/01/17 12:13:13;;;;;;;12.85;8.73;;;;;;;5.42;77.15;102269.81;4972562;28;20062;-81
2022/01/17 12:16:30;;;;;;;14.15;8.45;;;;;;;5.39;77.59;102289.72;4959726;28;20052;-81
2022/01/17 12:19:33;;;;;;;11.73;7.38;;;;;;;5.34;77.49;102316.53;4960176;28;20082;-81
2022/01/17 12:22:39;;;;;;;;;;;;;;;5.35;77.19;102330.38;4971196;28;20070;-81
2022/01/17 12:25:43;;;;;;;12.20;7.45;;;;;;;5.33;77.86;102325.19;4958055;28;19960;-82
2022/01/17 12:28:54;;;;;;;12.43;8.25;;;;;;;5.28;77.49;102319.13;4970470;28;20398;-81
2022/01/17 12:31:58;;;;;;;15.60;8.50;;;;;;;5.31;77.73;102321.72;4957421;28;20152;-81
2022/01/17 12:35:04;;;;;;;;;;;;;;;5.32;78.02;102323.44;4944672;28;20049;-81
2022/01/17 12:38:11;;;;;;;11.05;6.50;;;;;;;5.39;77.83;102315.66;4958249;28;19973;-81
2022/01/17 12:41:33;;;;;;;11.95;6.97;;;;;;;5.30;78.13;102296.66;4958402;28;20122;-81
2022/01/17 12:44:43;;;;;;;11.27;7.30;;;;;;;5.29;77.99;102310.47;4967463;28;20090;-81
2022/01/17 12:47:47;;;;;;;14.38;9.27;;;;;;;5.35;78.21;102300.09;4969599;28;20053;-81
2022/01/17 12:50:52;;;;;;;14.05;7.82;;;;;;;5.31;78.14;102287.16;4954977;28;20057;-81
2022/01/17 12:53:55;;;;;;;11.20;8.68;;;;;;;5.35;78.58;102305.28;4938870;29;20054;-81
2022/01/17 12:56:59;;;;;;;;;;;;;;;5.44;78.05;102298.34;4939588;29;20454;-81
2022/01/17 13:00:08;;;;;;;;;;;;;;;5.45;78.07;102308.72;4929201;29;19930;-81
2022/01/17 13:03:14;;;;;;;13.18;8.05;;;;;;;5.44;79.07;102308.72;4950090;29;20086;-81
2022/01/17 13:06:19;;;;;;;14.75;9.65;;;;;;;5.42;79.89;102307.88;4956358;28;20064;-81
2022/01/17 13:09:25;;;;;;;13.63;9.63;;;;;;;5.58;79.54;102317.34;4958434;28;20537;-81
2022/01/17 13:12:28;;;;;;;14.27;10.38;;;;;;;5.54;79.49;102320.81;4969313;28;20049;-81
2022/01/17 13:15:32;;;;;;;14.88;9.23;;;;;;;5.56;79.81;102293.13;4968775;28;20046;-81
2022/01/17 13:18:35;;;;;;;;;;;;;;;5.63;79.55;102300.03;4947141;28;20397;-81
2022/01/17 13:21:40;;;;;;;14.23;10.30;;;;;;;5.67;79.10;102312.13;4957781;28;19925;-81
2022/01/17 13:24:53;;;;;;;19.08;11.20;;;;;;;5.62;79.25;102292.25;4958018;28;20057;-81
2022/01/17 13:28:01;;;;;;;16.08;11.20;;;;;;;5.63;79.47;102297.44;4966013;28;20517;-81
2022/01/17 13:31:20;;;;;;;27.92;14.93;;;;;;;5.65;79.23;102287.91;4956847;28;20045;-81
2022/01/17 13:34:30;;;;;;;18.60;11.85;;;;;;;5.64;79.65;102299.16;4952084;28;20089;-82
2022/01/17 13:37:33;;;;;;;13.75;9.70;;;;;;;5.63;80.36;102312.16;4954998;28;20174;-81
2022/01/17 13:40:37;;;;;;;;;;;;;;;5.70;80.10;102327.69;4969765;28;20054;-81
2022/01/17 13:43:51;;;;;;;14.43;9.32;;;;;;;5.75;80.13;102325.94;4968224;28;19929;-81
2022/01/17 13:46:57;;;;;;;23.13;11.80;;;;;;;5.75;80.42;102315.56;4969099;28;20053;-81
2022/01/17 13:50:00;;;;;;;31.30;21.83;;;;;;;5.85;80.34;102310.34;4956844;28;20135;-81
2022/01/17 13:53:05;;;;;;;41.10;28.27;;;;;;;5.86;80.74;102317.25;4969373;28;20069;-81
2022/01/17 13:56:08;;;;;;;18.15;12.63;;;;;;;5.89;80.86;102317.25;4969432;28;20045;-81
2022/01/17 13:59:15;;;;;;;22.33;14.05;;;;;;;5.91;80.51;102318.97;4956790;28;20403;-82
2022/01/17 14:02:18;;;;;;;25.60;17.80;;;;;;;6.01;80.04;102317.22;4957263;28;20046;-81
2022/01/17 14:05:34;;;;;;;19.52;11.73;;;;;;;5.89;81.20;102294.72;4967878;28;20093;-81
2022/01/17 14:08:48;;;;;;;15.02;11.20;;;;;;;5.87;81.60;102282.63;4969863;28;20054;-80
2022/01/17 14:11:53;;;;;;;18.55;9.88;;;;;;;5.85;82.01;102284.38;4946330;28;20125;-81
2022/01/17 14:14:59;;;;;;;16.65;10.20;;;;;;;5.94;81.88;102294.75;4969182;28;20049;-81
2022/01/17 14:18:09;;;;;;;;;;;;;;;5.88;82.17;102315.53;4969232;28;20097;-81
2022/01/17 14:21:21;;;;;;;22.83;15.70;;;;;;;5.85;83.16;102321.59;4949809;29;19965;-81
2022/01/17 14:24:34;;;;;;;21.90;15.02;;;;;;;5.82;83.95;102322.44;4938259;29;20051;-81
2022/01/17 14:27:38;;;;;;;21.38;14.75;;;;;;;5.89;83.87;102314.63;4950863;28;20576;-81
2022/01/17 14:30:42;;;;;;;16.58;12.02;;;;;;;5.84;84.02;102312.06;4969688;28;20057;-81
2022/01/17 14:33:49;;;;;;;20.92;11.98;;;;;;;5.82;84.10;102300.81;4957332;28;20045;-81
2022/01/17 14:37:01;;;;;;;20.80;12.45;;;;;;;5.86;84.53;102309.47;4968837;28;20449;-81
2022/01/17 14:40:09;;;;;;;18.50;13.10;;;;;;;5.93;84.24;102303.41;4969258;28;20653;-82
2022/01/17 14:43:13;;;;;;;63.80;31.75;;;;;;;5.81;84.38;102307.75;4956733;28;20810;-81
2022/01/17 14:46:18;;;;;;;16.73;9.68;;;;;;;5.77;84.59;102318.13;4948254;29;20062;-81
2022/01/17 14:49:21;;;;;;;15.27;9.57;;;;;;;5.80;84.95;102318.97;4937379;29;20455;-81
2022/01/17 14:52:29;;;;;;;12.27;8.52;;;;;;;5.83;84.44;102333.69;4949061;29;20042;-81
2022/01/17 14:59:25;;;;;;;14.50;9.40;;;;;;;5.89;84.19;102332.81;4964823;28;20054;-81
2022/01/17 14:59:30;;;;;;;16.00;10.52;;;;;;;5.98;84.26;102338.00;4950948;28;20042;-81
2022/01/17 15:02:44;;;;;;;14.18;8.60;;;;;;;6.01;83.82;102348.38;4950989;29;20127;-81
2022/01/17 15:06:01;;;;;;;12.77;8.65;;;;;;;6.07;83.46;102366.53;4952261;29;20457;-82
2022/01/17 15:09:04;;;;;;;11.98;8.95;;;;;;;5.92;84.24;102374.34;4942091;28;20443;-81
2022/01/17 15:12:09;;;;;;;14.48;9.13;;;;;;;6.04;83.85;102369.16;4960807;28;20097;-82